Time;durP1;ratioP1;P1;durP2;ratioP2;P2;SDS_P1;SDS_P2;PMS_P1;PMS_P2;Temp;Humidity;BMP_temperature;BMP_pressure;BME280_temperature;BME280_humidity;BME280_pressure;Samples;Min_cycle;Max_cycle;Signal;HPM_P1;HPM_P2
2023/11/11 00:00:12;;;;;;;0.77;0.50;;;4.60;99.90;;;;;;2074867;28;20192;-74
2023/11/11 00:01:13;;;;;;;0.47;0.30;;;4.60;99.90;;;;;;2080353;28;20212;-75
2023/11/11 00:02:13;;;;;;;0.30;0.30;;;4.60;99.90;;;;;;2076201;28;20197;-75
2023/11/11 00:03:16;;;;;;;0.30;0.30;;;4.60;99.90;;;;;;2071663;28;20247;-74
2023/11/11 00:04:17;;;;;;;0.30;0.30;;;4.60;99.90;;;;;;2084233;28;20183;-74
2023/11/11 00:05:18;;;;;;;0.50;0.50;;;4.60;99.90;;;;;;2093040;28;20262;-75
2023/11/11 00:06:19;;;;;;;0.50;0.40;;;4.60;99.90;;;;;;2085908;28;20286;-75
2023/11/11 00:07:20;;;;;;;0.30;0.30;;;4.60;99.90;;;;;;2071294;28;20241;-75
2023/11/11 00:08:22;;;;;;;0.28;0.28;;;4.60;99.90;;;;;;2081947;28;20616;-74
2023/11/11 00:09:23;;;;;;;0.20;0.20;;;4.60;99.90;;;;;;2087101;28;20241;-71
2023/11/11 00:10:24;;;;;;;0.97;0.30;;;4.50;99.90;;;;;;2092609;28;20264;-72
2023/11/11 00:11:24;;;;;;;0.27;0.27;;;4.50;99.90;;;;;;2091243;28;20287;-72
2023/11/11 00:12:25;;;;;;;0.30;0.30;;;4.50;99.90;;;;;;2082767;28;20232;-72
2023/11/11 00:13:27;;;;;;;1.17;0.80;;;4.50;99.90;;;;;;2081588;28;20308;-73
2023/11/11 00:14:28;;;;;;;0.85;0.38;;;4.50;99.90;;;;;;2093446;28;20721;-72
2023/11/11 00:15:29;;;;;;;0.30;0.30;;;4.50;99.90;;;;;;2093921;28;20232;-71
2023/11/11 00:16:31;;;;;;;0.20;0.20;;;4.50;99.90;;;;;;2087373;28;20242;-72
2023/11/11 00:17:32;;;;;;;0.50;0.50;;;4.50;99.90;;;;;;2087939;28;20233;-72
2023/11/11 00:18:33;;;;;;;3.30;0.50;;;4.50;99.90;;;;;;2095445;28;20787;-72
2023/11/11 00:19:34;;;;;;;1.80;0.57;;;4.40;99.90;;;;;;2094003;28;20227;-73
2023/11/11 00:20:35;;;;;;;0.30;0.30;;;4.40;99.90;;;;;;2095123;28;20235;-72
2023/11/11 00:21:38;;;;;;;0.30;0.30;;;4.40;99.90;;;;;;2095391;28;20240;-72
2023/11/11 00:22:43;;;;;;;0.57;0.40;;;4.40;99.90;;;;;;2093654;28;20231;-72
2023/11/11 00:23:44;;;;;;;0.73;0.40;;;4.40;99.90;;;;;;2081371;28;20245;-72
2023/11/11 00:24:45;;;;;;;0.30;0.30;;;4.40;99.90;;;;;;2072491;28;20234;-72
2023/11/11 00:25:46;;;;;;;2.05;0.40;;;4.40;99.90;;;;;;2090606;28;20246;-72
2023/11/11 00:26:48;;;;;;;1.77;0.47;;;4.40;99.90;;;;;;2095406;28;20678;-72
2023/11/11 00:27:49;;;;;;;7.93;1.15;;;4.40;99.90;;;;;;2087400;28;20269;-72
2023/11/11 00:28:49;;;;;;;1.90;0.40;;;4.40;99.90;;;;;;2095257;28;20288;-72
2023/11/11 00:29:50;;;;;;;0.37;0.37;;;4.40;99.90;;;;;;2091538;28;20236;-72
2023/11/11 00:30:52;;;;;;;0.30;0.30;;;4.30;99.90;;;;;;2090968;28;20598;-72
2023/11/11 00:31:52;;;;;;;0.55;0.40;;;4.30;99.90;;;;;;2082686;28;20233;-72
2023/11/11 00:32:54;;;;;;;0.73;0.27;;;4.30;99.90;;;;;;2089454;28;20314;-72
2023/11/11 00:33:54;;;;;;;0.32;0.32;;;4.30;99.90;;;;;;2083739;28;20232;-72
2023/11/11 00:34:55;;;;;;;0.30;0.30;;;4.30;99.90;;;;;;2067210;28;20710;-72
2023/11/11 00:35:56;;;;;;;0.30;0.30;;;4.20;99.90;;;;;;2073961;28;20252;-72
2023/11/11 00:36:57;;;;;;;2.73;0.50;;;4.20;99.90;;;;;;2083520;28;20231;-72
2023/11/11 00:37:58;;;;;;;0.20;0.20;;;4.20;99.90;;;;;;2087016;28;20231;-73
2023/11/11 00:38:59;;;;;;;0.30;0.30;;;4.20;99.90;;;;;;2076896;28;20292;-72
2023/11/11 00:40:00;;;;;;;0.67;0.33;;;4.20;99.90;;;;;;2082774;28;20204;-72
2023/11/11 00:41:00;;;;;;;0.33;0.33;;;4.30;99.90;;;;;;2082818;28;20216;-72
2023/11/11 00:42:01;;;;;;;0.20;0.20;;;4.20;99.90;;;;;;2075031;28;20192;-73
2023/11/11 00:43:02;;;;;;;0.30;0.30;;;4.30;99.90;;;;;;2067497;28;20684;-73
2023/11/11 00:44:04;;;;;;;0.30;0.30;;;4.30;99.90;;;;;;2073281;28;20648;-74
2023/11/11 00:45:06;;;;;;;0.30;0.30;;;4.30;99.90;;;;;;2078400;28;20577;-73
2023/11/11 00:46:07;;;;;;;0.70;0.45;;;4.30;99.90;;;;;;2087165;28;20736;-73
2023/11/11 00:47:09;;;;;;;0.30;0.30;;;4.20;99.90;;;;;;2087520;28;20481;-73
2023/11/11 00:48:09;;;;;;;0.95;0.82;;;4.20;99.90;;;;;;2075462;28;20189;-73
2023/11/11 00:49:10;;;;;;;0.50;0.50;;;4.20;99.90;;;;;;2087039;28;20214;-73
2023/11/11 00:50:11;;;;;;;1.23;0.40;;;4.20;99.90;;;;;;2090744;28;20192;-73
2023/11/11 00:51:12;;;;;;;0.30;0.30;;;4.20;99.90;;;;;;2083217;28;20181;-73
2023/11/11 00:52:12;;;;;;;0.40;0.40;;;4.20;99.90;;;;;;2078847;28;20275;-73
2023/11/11 00:53:14;;;;;;;0.40;0.40;;;4.20;99.90;;;;;;2078906;28;20205;-73
2023/11/11 00:54:15;;;;;;;0.40;0.40;;;4.20;99.90;;;;;;2083171;28;20315;-73
2023/11/11 00:55:17;;;;;;;0.40;0.40;;;4.30;99.90;;;;;;2081668;28;20746;-73
2023/11/11 00:56:18;;;;;;;0.52;0.30;;;4.30;99.90;;;;;;2089139;28;20261;-73
2023/11/11 00:57:18;;;;;;;0.30;0.30;;;4.30;99.90;;;;;;2087117;28;20266;-73
2023/11/11 00:58:19;;;;;;;0.50;0.50;;;4.30;99.90;;;;;;2071651;28;20229;-73
2023/11/11 00:59:20;;;;;;;1.60;0.40;;;4.30;99.90;;;;;;2063085;28;20244;-73
2023/11/11 01:00:21;;;;;;;0.30;0.30;;;4.30;99.90;;;;;;2073691;28;20252;-73
2023/11/11 01:01:22;;;;;;;1.50;0.50;;;4.30;99.90;;;;;;2093091;28;20299;-73
2023/11/11 01:02:24;;;;;;;0.50;0.50;;;4.30;99.90;;;;;;2095317;28;20231;-73
2023/11/11 01:03:24;;;;;;;0.30;0.30;;;4.30;99.90;;;;;;2095055;28;20223;-74
2023/11/11 01:04:26;;;;;;;0.53;0.50;;;4.30;99.90;;;;;;2090469;28;20256;-73
2023/11/11 01:05:26;;;;;;;13.15;1.20;;;4.30;99.90;;;;;;2089252;28;20233;-72
2023/11/11 01:06:27;;;;;;;0.50;0.50;;;4.20;99.90;;;;;;2090730;28;20231;-72
2023/11/11 01:07:28;;;;;;;0.38;0.38;;;4.10;99.90;;;;;;2089167;28;20318;-73
2023/11/11 01:08:30;;;;;;;0.40;0.40;;;4.10;99.90;;;;;;2084861;28;20275;-73
2023/11/11 01:09:31;;;;;;;0.80;0.60;;;4.10;99.90;;;;;;2095532;28;20237;-73
2023/11/11 01:10:37;;;;;;;0.50;0.47;;;4.20;99.90;;;;;;2079258;28;20232;-73
2023/11/11 01:11:38;;;;;;;1.42;0.40;;;4.20;99.90;;;;;;2087920;28;20232;-73
2023/11/11 01:12:39;;;;;;;0.50;0.50;;;4.30;99.90;;;;;;2089869;28;20224;-73
2023/11/11 01:13:39;;;;;;;0.60;0.60;;;4.30;99.90;;;;;;2090271;28;20464;-73
2023/11/11 01:14:40;;;;;;;0.50;0.40;;;4.30;99.90;;;;;;2093111;28;20236;-73
2023/11/11 01:15:41;;;;;;;0.53;0.53;;;4.20;99.90;;;;;;2091172;28;20227;-73
2023/11/11 01:16:42;;;;;;;1.50;0.50;;;4.20;99.90;;;;;;2089073;28;20505;-73
2023/11/11 01:17:44;;;;;;;0.47;0.47;;;4.20;99.90;;;;;;2073777;28;20221;-72
2023/11/11 01:18:45;;;;;;;0.65;0.60;;;4.20;99.90;;;;;;2081626;28;20755;-73
2023/11/11 01:19:46;;;;;;;0.50;0.50;;;4.20;99.90;;;;;;2085500;28;20239;-73
2023/11/11 01:20:46;;;;;;;1.08;0.50;;;4.20;99.90;;;;;;2085822;28;20242;-73
2023/11/11 01:21:47;;;;;;;0.83;0.50;;;4.20;99.90;;;;;;2080275;28;20274;-73
2023/11/11 01:22:49;;;;;;;0.53;0.53;;;4.20;99.90;;;;;;2087356;28;20815;-73
2023/11/11 01:23:49;;;;;;;0.90;0.57;;;4.20;99.90;;;;;;2080640;28;20261;-73
2023/11/11 01:24:50;;;;;;;0.70;0.70;;;4.20;99.90;;;;;;2071759;28;20234;-73
2023/11/11 01:25:51;;;;;;;0.40;0.40;;;4.20;99.90;;;;;;2071284;28;20258;-73
2023/11/11 01:26:52;;;;;;;0.40;0.40;;;4.20;99.90;;;;;;2083795;28;20232;-73
2023/11/11 01:27:53;;;;;;;1.17;0.43;;;4.20;99.90;;;;;;2081975;28;20423;-74
2023/11/11 01:28:54;;;;;;;0.50;0.50;;;4.20;99.90;;;;;;2084665;28;20367;-73
2023/11/11 01:29:55;;;;;;;0.40;0.40;;;4.20;99.90;;;;;;2091697;28;20231;-73
2023/11/11 01:30:56;;;;;;;0.53;0.50;;;4.20;99.90;;;;;;2092821;28;20505;-74
2023/11/11 01:31:57;;;;;;;0.50;0.50;;;4.20;99.90;;;;;;2079524;28;20235;-74
2023/11/11 01:32:57;;;;;;;0.40;0.40;;;4.20;99.90;;;;;;2080793;28;20661;-74
2023/11/11 01:33:58;;;;;;;0.40;0.40;;;4.20;99.90;;;;;;2087775;28;20428;-74
2023/11/11 01:34:59;;;;;;;0.63;0.57;;;4.20;99.90;;;;;;2086253;28;20208;-74
2023/11/11 01:36:01;;;;;;;0.37;0.37;;;4.20;99.90;;;;;;2075867;28;20184;-74
2023/11/11 01:37:07;;;;;;;0.65;0.60;;;4.20;99.90;;;;;;2077053;28;20211;-74
2023/11/11 01:38:08;;;;;;;0.38;0.38;;;4.20;99.90;;;;;;2090255;28;20221;-74
2023/11/11 01:39:09;;;;;;;0.40;0.40;;;4.20;99.90;;;;;;2083295;28;20232;-74
2023/11/11 01:40:11;;;;;;;0.83;0.40;;;4.20;99.90;;;;;;2069548;28;20193;-74
2023/11/11 01:41:13;;;;;;;0.30;0.30;;;4.20;99.90;;;;;;2070896;28;20193;-73
2023/11/11 01:42:15;;;;;;;0.40;0.40;;;4.30;99.90;;;;;;2072514;28;20280;-73
2023/11/11 01:43:15;;;;;;;0.45;0.45;;;4.20;99.90;;;;;;2080444;28;20187;-74
2023/11/11 01:44:16;;;;;;;0.33;0.33;;;4.20;99.90;;;;;;2085100;28;20265;-73
2023/11/11 01:45:18;;;;;;;2.17;0.47;;;4.20;99.90;;;;;;2079468;28;20178;-73
2023/11/11 01:46:20;;;;;;;0.40;0.40;;;4.30;99.90;;;;;;2080140;28;20766;-73
2023/11/11 01:47:21;;;;;;;0.40;0.40;;;4.30;99.90;;;;;;2080564;28;20243;-74
2023/11/11 01:48:22;;;;;;;0.50;0.50;;;4.30;99.90;;;;;;2082760;28;20225;-73
2023/11/11 01:49:24;;;;;;;1.15;0.60;;;4.30;99.90;;;;;;2086629;28;20227;-74
2023/11/11 01:50:26;;;;;;;0.77;0.50;;;4.20;99.90;;;;;;2084910;28;20340;-73
2023/11/11 01:51:29;;;;;;;0.40;0.40;;;4.20;99.90;;;;;;2082533;28;20231;-73
2023/11/11 01:52:30;;;;;;;0.50;0.50;;;4.30;99.90;;;;;;2081004;28;20295;-73
2023/11/11 01:53:33;;;;;;;0.60;0.40;;;4.20;99.90;;;;;;2075667;28;20288;-73
2023/11/11 01:54:37;;;;;;;0.40;0.40;;;4.20;99.90;;;;;;2062715;28;20234;-73
2023/11/11 01:55:38;;;;;;;0.70;0.50;;;4.20;99.90;;;;;;2080214;28;20617;-74
2023/11/11 01:56:40;;;;;;;0.43;0.43;;;4.30;99.90;;;;;;2079741;28;20243;-73
2023/11/11 01:57:40;;;;;;;0.50;0.50;;;4.20;99.90;;;;;;2083336;28;20255;-73
2023/11/11 01:58:42;;;;;;;0.40;0.40;;;4.20;99.90;;;;;;2079732;28;20216;-74
2023/11/11 01:59:43;;;;;;;0.60;0.60;;;4.10;99.90;;;;;;2080354;28;20630;-73
2023/11/11 02:00:44;;;;;;;0.85;0.47;;;4.10;99.90;;;;;;2087643;28;20225;-73
2023/11/11 02:01:46;;;;;;;1.67;0.50;;;4.10;99.90;;;;;;2075796;28;20248;-74
2023/11/11 02:02:48;;;;;;;3.63;1.02;;;4.20;99.90;;;;;;2085060;28;20260;-73
2023/11/11 02:03:49;;;;;;;2.00;0.60;;;4.10;99.90;;;;;;2087812;28;20386;-73
2023/11/11 02:04:49;;;;;;;1.40;0.50;;;4.10;99.90;;;;;;2082460;28;20236;-72
2023/11/11 02:05:53;;;;;;;0.80;0.70;;;4.10;99.90;;;;;;2082800;28;20232;-73
2023/11/11 02:06:54;;;;;;;1.30;0.68;;;4.10;99.90;;;;;;2082061;28;20267;-73
2023/11/11 02:08:01;;;;;;;1.33;0.80;;;4.00;99.90;;;;;;2090811;28;20230;-73
2023/11/11 02:09:03;;;;;;;0.65;0.50;;;4.00;99.90;;;;;;2081662;28;20797;-73
2023/11/11 02:10:07;;;;;;;0.63;0.57;;;3.90;99.90;;;;;;2077833;28;20197;-73
2023/11/11 02:11:08;;;;;;;0.68;0.50;;;3.90;99.90;;;;;;2080164;28;20643;-73
2023/11/11 02:12:09;;;;;;;0.90;0.57;;;3.90;99.90;;;;;;2076339;28;20188;-73
2023/11/11 02:13:11;;;;;;;1.98;0.60;;;3.90;99.90;;;;;;2081815;28;20241;-73
2023/11/11 02:14:12;;;;;;;0.60;0.60;;;3.90;99.90;;;;;;2078404;28;20184;-73
2023/11/11 02:15:15;;;;;;;0.97;0.70;;;3.90;99.90;;;;;;2087253;28;20184;-73
2023/11/11 02:16:16;;;;;;;0.45;0.45;;;3.90;99.90;;;;;;2078332;28;20468;-73
2023/11/11 02:17:17;;;;;;;3.90;0.73;;;3.80;99.90;;;;;;2074606;28;20196;-73
2023/11/11 02:18:18;;;;;;;0.50;0.50;;;3.80;99.90;;;;;;2080438;28;20298;-73
2023/11/11 02:19:19;;;;;;;0.70;0.70;;;3.80;99.90;;;;;;2075566;28;20241;-73
2023/11/11 02:20:20;;;;;;;2.00;0.80;;;3.90;99.90;;;;;;2074382;28;20607;-73
2023/11/11 02:21:21;;;;;;;0.80;0.80;;;3.80;99.90;;;;;;2082112;28;20757;-73
2023/11/11 02:22:21;;;;;;;1.30;0.80;;;3.80;99.90;;;;;;2086539;28;20233;-73
2023/11/11 02:23:37;;;;;;;1.20;0.70;;;3.80;99.90;;;;;;2071745;28;20234;-73
2023/11/11 02:24:40;;;;;;;1.30;0.70;;;3.80;99.90;;;;;;2080888;28;20247;-73
2023/11/11 02:25:41;;;;;;;0.52;0.52;;;3.80;99.90;;;;;;2089101;28;20280;-74
2023/11/11 02:26:44;;;;;;;1.88;0.88;;;3.80;99.90;;;;;;2090407;28;20235;-73
2023/11/11 02:27:46;;;;;;;2.00;0.80;;;3.80;99.90;;;;;;2091242;28;20234;-74
2023/11/11 02:28:48;;;;;;;1.58;0.90;;;3.80;99.90;;;;;;2091771;28;20236;-74
2023/11/11 02:29:48;;;;;;;0.90;0.88;;;3.80;99.90;;;;;;2090357;28;20722;-74
2023/11/11 02:30:49;;;;;;;1.50;1.00;;;3.70;99.90;;;;;;2082221;28;20319;-74
2023/11/11 02:31:50;;;;;;;1.20;0.70;;;3.70;99.90;;;;;;2084843;28;20308;-74
2023/11/11 02:32:51;;;;;;;1.65;1.00;;;3.70;99.90;;;;;;2083289;28;20248;-73
2023/11/11 02:33:51;;;;;;;1.00;0.87;;;3.70;99.90;;;;;;2088667;28;20232;-74
2023/11/11 02:34:52;;;;;;;1.43;0.93;;;3.70;99.90;;;;;;2084377;28;20260;-76
2023/11/11 02:35:53;;;;;;;1.63;1.00;;;3.70;99.90;;;;;;2083718;28;20415;-74
2023/11/11 02:36:55;;;;;;;2.67;1.13;;;3.70;99.90;;;;;;2078723;28;20294;-74
2023/11/11 02:37:56;;;;;;;1.05;0.90;;;3.70;99.90;;;;;;2078484;28;20236;-74
2023/11/11 02:38:59;;;;;;;1.43;1.17;;;3.70;99.90;;;;;;2093465;28;20327;-74
2023/11/11 02:40:00;;;;;;;1.17;1.00;;;3.70;99.90;;;;;;2073456;28;20255;-75
2023/11/11 02:41:01;;;;;;;1.27;1.10;;;3.70;99.90;;;;;;2081946;28;20200;-74
2023/11/11 02:42:01;;;;;;;1.90;1.00;;;3.70;99.90;;;;;;2081306;28;20699;-74
2023/11/11 02:43:02;;;;;;;1.70;1.07;;;3.70;99.90;;;;;;2079878;28;20193;-74
2023/11/11 02:44:06;;;;;;;0.90;0.90;;;3.70;99.90;;;;;;2085201;28;20216;-74
2023/11/11 02:45:08;;;;;;;0.90;0.80;;;3.70;99.90;;;;;;2086502;28;20243;-74
2023/11/11 02:46:09;;;;;;;0.90;0.80;;;3.70;99.90;;;;;;2069531;28;20579;-74
2023/11/11 02:47:10;;;;;;;0.70;0.70;;;3.70;99.90;;;;;;2074045;28;20479;-74
2023/11/11 02:48:10;;;;;;;1.45;1.00;;;3.70;99.90;;;;;;2073396;28;20202;-74
2023/11/11 02:49:11;;;;;;;1.33;1.10;;;3.70;99.90;;;;;;2080386;28;20278;-74
2023/11/11 02:50:12;;;;;;;1.60;1.00;;;3.70;99.90;;;;;;2084071;28;20240;-74
2023/11/11 02:51:13;;;;;;;0.77;0.77;;;3.70;99.90;;;;;;2086323;28;20220;-74
2023/11/11 02:52:14;;;;;;;1.20;0.88;;;3.70;99.90;;;;;;2077103;28;20422;-74
2023/11/11 02:53:14;;;;;;;2.50;1.00;;;3.70;99.90;;;;;;2086852;28;20196;-74
2023/11/11 02:54:15;;;;;;;1.03;0.93;;;3.70;99.90;;;;;;2077946;28;20201;-74
2023/11/11 02:55:18;;;;;;;1.10;1.00;;;3.70;99.90;;;;;;2068720;28;20190;-74
2023/11/11 02:56:19;;;;;;;1.10;1.00;;;3.70;99.90;;;;;;2082126;28;20314;-74
2023/11/11 02:57:20;;;;;;;0.95;0.80;;;3.70;99.90;;;;;;2086762;28;20228;-74
2023/11/11 02:58:21;;;;;;;0.80;0.77;;;3.70;99.90;;;;;;2067763;28;20698;-74
2023/11/11 02:59:22;;;;;;;1.00;0.80;;;3.70;99.90;;;;;;2076704;28;20299;-74
2023/11/11 03:00:23;;;;;;;1.77;1.50;;;3.70;99.90;;;;;;2079340;28;20244;-74
2023/11/11 03:01:24;;;;;;;2.35;1.30;;;3.70;99.90;;;;;;2083906;28;20477;-74
2023/11/11 03:02:25;;;;;;;2.00;0.90;;;3.70;99.90;;;;;;2082416;28;20233;-74
2023/11/11 03:03:27;;;;;;;1.05;0.70;;;3.70;99.90;;;;;;2085514;28;20224;-74
2023/11/11 03:04:28;;;;;;;0.90;0.77;;;3.70;99.90;;;;;;2093650;28;20581;-75
2023/11/11 03:05:29;;;;;;;0.77;0.77;;;3.70;99.90;;;;;;2091868;28;20241;-74
2023/11/11 03:06:31;;;;;;;1.40;0.80;;;3.70;99.90;;;;;;2080273;28;20631;-74
2023/11/11 03:07:34;;;;;;;1.65;1.08;;;3.70;99.90;;;;;;2078195;28;20225;-74
2023/11/11 03:08:36;;;;;;;1.30;1.00;;;3.80;99.90;;;;;;2074623;28;20286;-74
2023/11/11 03:09:40;;;;;;;1.30;0.80;;;3.80;99.90;;;;;;2082427;28;20220;-74
2023/11/11 03:10:41;;;;;;;0.90;0.70;;;3.80;99.90;;;;;;2090533;28;20285;-75
2023/11/11 03:11:41;;;;;;;0.90;0.90;;;3.70;99.90;;;;;;2081373;28;20233;-74
2023/11/11 03:12:42;;;;;;;0.87;0.80;;;3.70;99.90;;;;;;2076302;28;20754;-74
2023/11/11 03:13:43;;;;;;;1.23;0.97;;;3.70;99.90;;;;;;2087114;28;20326;-74
2023/11/11 03:14:44;;;;;;;1.57;1.47;;;3.60;99.90;;;;;;2078791;28;20314;-74
2023/11/11 03:15:44;;;;;;;1.17;0.80;;;3.70;99.90;;;;;;2072145;28;20267;-74
2023/11/11 03:16:45;;;;;;;1.27;0.80;;;3.70;99.90;;;;;;2071682;28;20235;-74
2023/11/11 03:17:46;;;;;;;0.80;0.80;;;3.70;99.90;;;;;;2089182;28;20428;-74
2023/11/11 03:18:47;;;;;;;0.80;0.70;;;3.70;99.90;;;;;;2080883;28;20228;-74
2023/11/11 03:19:47;;;;;;;0.80;0.80;;;3.70;99.90;;;;;;2078692;28;20228;-74
2023/11/11 03:20:48;;;;;;;0.90;0.73;;;3.60;99.90;;;;;;2079329;28;20235;-74
2023/11/11 03:21:49;;;;;;;1.57;0.87;;;3.70;99.90;;;;;;2078194;28;20323;-75
2023/11/11 03:22:49;;;;;;;1.67;1.30;;;3.60;99.90;;;;;;2087168;28;20727;-74
2023/11/11 03:23:50;;;;;;;0.73;0.73;;;3.60;99.90;;;;;;2084190;28;20299;-74
2023/11/11 03:24:51;;;;;;;2.15;0.98;;;3.60;99.90;;;;;;2083175;28;20632;-75
2023/11/11 03:25:52;;;;;;;0.90;0.87;;;3.60;99.90;;;;;;2086711;28;20235;-74
2023/11/11 03:26:53;;;;;;;1.27;0.88;;;3.60;99.90;;;;;;2076106;28;20329;-74
2023/11/11 03:27:54;;;;;;;1.00;0.83;;;3.60;99.90;;;;;;2060016;28;20230;-74
2023/11/11 03:28:54;;;;;;;2.20;1.00;;;3.60;99.90;;;;;;2078758;28;20232;-74
2023/11/11 03:29:55;;;;;;;1.67;0.70;;;3.60;99.90;;;;;;2080525;28;20229;-75
2023/11/11 03:30:56;;;;;;;1.40;0.93;;;3.60;99.90;;;;;;2081071;28;20319;-74
2023/11/11 03:31:57;;;;;;;2.25;1.15;;;3.60;99.90;;;;;;2090593;28;20713;-74
2023/11/11 03:32:58;;;;;;;3.23;1.00;;;3.60;99.90;;;;;;2081218;28;20249;-76
2023/11/11 03:33:59;;;;;;;0.60;0.60;;;3.60;99.90;;;;;;2075149;28;20309;-75
2023/11/11 03:34:59;;;;;;;1.80;1.10;;;3.60;99.90;;;;;;2079458;28;20263;-75
2023/11/11 03:36:01;;;;;;;1.60;1.10;;;3.70;99.90;;;;;;2079756;28;20195;-75
2023/11/11 03:37:03;;;;;;;1.45;0.90;;;3.70;99.90;;;;;;2079467;28;20207;-75
2023/11/11 03:38:03;;;;;;;1.55;1.05;;;3.60;99.90;;;;;;2081852;28;20622;-75
2023/11/11 03:39:05;;;;;;;1.90;0.90;;;3.60;99.90;;;;;;2075113;28;20260;-75
2023/11/11 03:40:10;;;;;;;2.75;1.30;;;3.60;99.90;;;;;;2067777;28;20193;-74
2023/11/11 03:41:11;;;;;;;0.90;0.90;;;3.50;99.90;;;;;;2069430;28;20197;-75
2023/11/11 03:42:11;;;;;;;1.87;1.00;;;3.60;99.90;;;;;;2084088;28;20188;-75
2023/11/11 03:43:12;;;;;;;0.80;0.80;;;3.50;99.90;;;;;;2086676;28;20218;-75
2023/11/11 03:44:13;;;;;;;1.95;0.82;;;3.50;99.90;;;;;;2090689;28;20789;-74
2023/11/11 03:45:14;;;;;;;0.80;0.80;;;3.50;99.90;;;;;;2083146;28;20192;-74
2023/11/11 03:46:15;;;;;;;18.53;2.03;;;3.50;99.90;;;;;;2090380;28;20237;-75
2023/11/11 03:47:15;;;;;;;1.20;1.00;;;3.50;99.90;;;;;;2073579;28;20195;-76
2023/11/11 03:48:16;;;;;;;1.70;1.10;;;3.50;99.90;;;;;;2087236;28;20237;-75
2023/11/11 03:49:17;;;;;;;1.43;1.10;;;3.50;99.90;;;;;;2088925;28;20669;-75
2023/11/11 03:50:18;;;;;;;0.70;0.70;;;3.50;99.90;;;;;;2070005;28;20539;-75
2023/11/11 03:51:19;;;;;;;1.15;0.85;;;3.50;99.90;;;;;;2062432;28;20225;-75
2023/11/11 03:52:19;;;;;;;1.33;1.07;;;3.50;99.90;;;;;;2071014;28;20222;-75
2023/11/11 03:53:21;;;;;;;1.27;0.80;;;3.50;99.90;;;;;;2073170;28;20697;-75
2023/11/11 03:54:22;;;;;;;1.40;1.00;;;3.50;99.90;;;;;;2070397;28;20304;-74
2023/11/11 03:55:23;;;;;;;0.70;0.63;;;3.40;99.90;;;;;;2086378;28;20611;-75
2023/11/11 03:56:26;;;;;;;3.35;1.10;;;3.40;99.90;;;;;;2086879;28;20310;-75
2023/11/11 03:57:27;;;;;;;0.75;0.70;;;3.40;99.90;;;;;;2074853;28;20278;-75
2023/11/11 03:58:28;;;;;;;1.00;0.90;;;3.40;99.90;;;;;;2072041;28;20844;-75
2023/11/11 03:59:34;;;;;;;1.73;0.70;;;3.40;99.90;;;;;;2075045;28;20232;-75
2023/11/11 04:00:34;;;;;;;1.15;1.02;;;3.40;99.90;;;;;;2086115;28;20709;-74
2023/11/11 04:01:36;;;;;;;0.83;0.70;;;3.50;99.90;;;;;;2083820;28;20229;-75
2023/11/11 04:02:37;;;;;;;3.08;0.80;;;3.50;99.90;;;;;;2073816;28;20268;-75
2023/11/11 04:03:39;;;;;;;2.10;0.93;;;3.40;99.90;;;;;;2081419;28;20244;-74
2023/11/11 04:04:40;;;;;;;0.80;0.80;;;3.40;99.90;;;;;;2082950;28;20233;-76
2023/11/11 04:05:41;;;;;;;2.35;1.20;;;3.30;99.90;;;;;;2083107;28;20299;-75
2023/11/11 04:06:42;;;;;;;1.37;1.10;;;3.30;99.90;;;;;;2081830;28;20256;-75
2023/11/11 04:07:46;;;;;;;1.63;0.70;;;3.40;99.90;;;;;;2072627;28;20325;-75
2023/11/11 04:08:47;;;;;;;1.85;1.00;;;3.30;99.90;;;;;;2073312;28;20229;-74
2023/11/11 04:09:48;;;;;;;1.80;1.07;;;3.30;99.90;;;;;;2074532;28;20276;-75
2023/11/11 04:10:49;;;;;;;1.30;0.90;;;3.30;99.90;;;;;;2081841;28;20226;-75
2023/11/11 04:11:49;;;;;;;0.60;0.60;;;3.30;99.90;;;;;;2084539;28;20465;-75
2023/11/11 04:12:50;;;;;;;1.40;0.90;;;3.30;99.90;;;;;;2083182;28;20273;-75
2023/11/11 04:13:51;;;;;;;2.10;1.23;;;3.30;99.90;;;;;;2081397;28;20224;-74
2023/11/11 04:14:51;;;;;;;1.40;0.90;;;3.30;99.90;;;;;;2081481;28;20224;-78
2023/11/11 04:15:52;;;;;;;1.23;1.00;;;3.30;99.90;;;;;;2078648;28;20247;-74
2023/11/11 04:16:53;;;;;;;2.40;1.10;;;3.30;99.90;;;;;;2080615;28;20227;-75
2023/11/11 04:17:54;;;;;;;1.25;1.08;;;3.40;99.90;;;;;;2080895;28;20252;-75
2023/11/11 04:18:54;;;;;;;1.10;0.77;;;3.30;99.90;;;;;;2081268;28;20240;-75
2023/11/11 04:19:55;;;;;;;1.67;0.93;;;3.30;99.90;;;;;;2092377;28;20231;-75
2023/11/11 04:20:58;;;;;;;0.80;0.70;;;3.30;99.90;;;;;;2081772;28;20231;-74
2023/11/11 04:21:58;;;;;;;1.10;0.80;;;3.20;99.90;;;;;;2085176;28;20228;-77
2023/11/11 04:22:59;;;;;;;1.03;1.00;;;3.20;99.90;;;;;;2095177;28;20275;-76
2023/11/11 04:24:00;;;;;;;2.90;1.53;;;3.10;99.90;;;;;;2091603;28;20214;-75
2023/11/11 04:25:05;;;;;;;1.30;1.10;;;3.10;99.90;;;;;;2084672;28;20603;-75
2023/11/11 04:26:06;;;;;;;1.75;0.70;;;3.00;99.90;;;;;;2086894;28;20194;-74
2023/11/11 04:27:08;;;;;;;2.60;1.10;;;3.00;99.90;;;;;;2092662;28;20184;-75
2023/11/11 04:28:09;;;;;;;3.92;0.95;;;3.00;99.90;;;;;;2077699;28;20290;-74
2023/11/11 04:29:12;;;;;;;2.50;0.90;;;3.00;99.90;;;;;;2082023;28;20686;-75
2023/11/11 04:30:14;;;;;;;1.90;1.05;;;3.00;99.90;;;;;;2073049;28;20722;-75
2023/11/11 04:31:18;;;;;;;1.55;0.80;;;2.90;99.90;;;;;;2075290;28;20192;-74
2023/11/11 04:32:19;;;;;;;2.35;1.10;;;3.00;99.90;;;;;;2079596;28;20290;-75
2023/11/11 04:33:20;;;;;;;0.70;0.60;;;3.00;99.90;;;;;;2078412;28;20577;-74
2023/11/11 04:34:21;;;;;;;0.93;0.80;;;2.90;99.90;;;;;;2072725;28;20255;-74
2023/11/11 04:35:22;;;;;;;1.17;1.00;;;2.90;99.90;;;;;;2065808;28;20272;-75
2023/11/11 04:36:22;;;;;;;0.73;0.73;;;2.80;99.90;;;;;;2087059;28;20227;-74
2023/11/11 04:37:23;;;;;;;0.60;0.60;;;2.80;99.90;;;;;;2088468;28;20224;-74
2023/11/11 04:38:24;;;;;;;1.23;0.85;;;2.90;99.90;;;;;;2080920;28;20709;-75
2023/11/11 04:39:25;;;;;;;2.22;0.85;;;2.80;99.90;;;;;;2082966;28;20255;-74
2023/11/11 04:40:26;;;;;;;1.90;1.30;;;2.80;99.90;;;;;;2084798;28;20240;-74
2023/11/11 04:41:27;;;;;;;1.87;0.93;;;2.80;99.90;;;;;;2076818;28;20298;-74
2023/11/11 04:42:28;;;;;;;0.90;0.70;;;2.80;99.90;;;;;;2069484;28;20264;-74
2023/11/11 04:43:28;;;;;;;1.43;1.00;;;2.80;99.90;;;;;;2066882;28;20297;-74
2023/11/11 04:44:30;;;;;;;2.00;1.03;;;2.80;99.90;;;;;;2074641;28;20638;-74
2023/11/11 04:45:31;;;;;;;0.98;0.93;;;2.70;99.90;;;;;;2074671;28;20221;-74
2023/11/11 04:46:31;;;;;;;1.58;0.90;;;2.70;99.90;;;;;;2077119;28;20299;-74
2023/11/11 04:47:32;;;;;;;2.00;1.00;;;2.70;99.90;;;;;;2080290;28;20224;-74
2023/11/11 04:48:33;;;;;;;2.37;1.10;;;2.70;99.90;;;;;;2084569;28;20249;-74
2023/11/11 04:49:34;;;;;;;1.23;1.03;;;2.70;99.90;;;;;;2085984;28;20247;-75
2023/11/11 04:50:35;;;;;;;1.40;1.13;;;2.70;99.90;;;;;;2069744;28;20225;-74
2023/11/11 04:51:35;;;;;;;1.00;0.82;;;2.70;99.90;;;;;;2076388;28;20757;-74
2023/11/11 04:52:38;;;;;;;1.20;1.03;;;2.70;99.90;;;;;;2079338;28;20286;-75
2023/11/11 04:53:40;;;;;;;2.33;1.15;;;2.60;99.90;;;;;;2076532;28;20234;-74
2023/11/11 04:54:44;;;;;;;1.17;1.00;;;2.60;99.90;;;;;;2087719;28;20272;-74
2023/11/11 04:55:46;;;;;;;1.75;1.00;;;2.70;99.90;;;;;;2089175;28;20269;-74
2023/11/11 04:56:46;;;;;;;2.60;1.20;;;2.70;99.90;;;;;;2093088;28;20794;-74
2023/11/11 04:57:47;;;;;;;1.10;1.00;;;2.70;99.90;;;;;;2079844;28;20283;-74
2023/11/11 04:58:48;;;;;;;1.20;0.90;;;2.70;99.90;;;;;;2078342;28;20730;-74
2023/11/11 04:59:49;;;;;;;0.80;0.80;;;2.70;99.90;;;;;;2082417;28;20232;-74
2023/11/11 05:00:49;;;;;;;2.10;1.10;;;2.70;99.90;;;;;;2064949;28;20229;-73
2023/11/11 05:01:52;;;;;;;2.83;1.50;;;2.70;99.90;;;;;;2073609;28;20257;-73
2023/11/11 05:02:55;;;;;;;2.70;1.10;;;2.70;99.90;;;;;;2086532;28;20227;-74
2023/11/11 05:03:55;;;;;;;1.58;0.93;;;2.70;99.90;;;;;;2078256;28;20225;-73
2023/11/11 05:04:56;;;;;;;1.10;1.00;;;2.70;99.90;;;;;;2086131;28;20804;-74
2023/11/11 05:05:57;;;;;;;1.07;0.90;;;2.70;99.90;;;;;;2086438;28;20306;-74
2023/11/11 05:06:58;;;;;;;1.42;0.93;;;2.70;99.90;;;;;;2069200;28;20221;-74
2023/11/11 05:07:59;;;;;;;1.30;1.20;;;2.70;99.90;;;;;;2071600;28;20243;-74
2023/11/11 05:09:00;;;;;;;0.80;0.80;;;2.60;99.90;;;;;;2091699;28;20213;-74
2023/11/11 05:10:00;;;;;;;1.80;1.23;;;2.70;99.90;;;;;;2081430;28;20203;-74
2023/11/11 05:11:02;;;;;;;2.40;1.13;;;2.70;99.90;;;;;;2073271;28;20192;-74
2023/11/11 05:12:05;;;;;;;1.25;0.95;;;2.70;99.90;;;;;;2083718;28;20195;-73
2023/11/11 05:13:08;;;;;;;4.13;1.23;;;2.70;99.90;;;;;;2085209;28;20187;-73
2023/11/11 05:14:11;;;;;;;1.25;1.10;;;2.70;99.90;;;;;;2089776;28;20629;-74
2023/11/11 05:15:15;;;;;;;1.27;1.02;;;2.70;99.90;;;;;;2082407;28;20215;-74
2023/11/11 05:16:27;;;;;;;2.33;1.20;;;2.70;99.90;;;;;;2078148;28;20197;-73
2023/11/11 05:17:27;;;;;;;1.23;0.88;;;2.70;99.90;;;;;;2079616;28;20231;-73
2023/11/11 05:18:28;;;;;;;1.73;1.27;;;2.70;99.90;;;;;;2083490;28;20728;-74
2023/11/11 05:19:29;;;;;;;5.23;1.47;;;2.70;99.90;;;;;;2077958;28;20374;-74
2023/11/11 05:20:30;;;;;;;1.30;1.20;;;2.70;99.90;;;;;;2073897;28;20315;-73
2023/11/11 05:21:31;;;;;;;1.23;0.98;;;2.70;99.90;;;;;;2062657;28;20633;-73
2023/11/11 05:22:31;;;;;;;3.77;1.00;;;2.70;99.90;;;;;;2064873;28;20221;-72
2023/11/11 05:23:32;;;;;;;1.30;1.20;;;2.70;99.90;;;;;;2074211;28;20217;-73